createdAt,value
2022-08-20T00:01:10.448Z,101358.69
2022-08-20T00:03:44.832Z,101362.31
2022-08-20T00:06:22.654Z,101350.00
2022-08-20T00:08:50.504Z,101346.59
2022-08-20T00:11:20.527Z,101341.31
2022-08-20T00:13:52.958Z,101342.16
2022-08-20T00:16:22.876Z,101340.25
2022-08-20T00:18:50.842Z,101342.81
2022-08-20T00:21:20.507Z,101342.63
2022-08-20T00:23:50.607Z,101340.34
2022-08-20T00:26:18.643Z,101337.19
2022-08-20T00:28:45.632Z,101333.41
2022-08-20T00:31:16.164Z,101325.81
2022-08-20T00:33:43.050Z,101323.47
2022-08-20T00:36:12.366Z,101319.00
2022-08-20T00:38:41.169Z,101324.91
2022-08-20T00:41:11.111Z,101330.13
2022-08-20T00:43:44.841Z,101319.53
2022-08-20T00:46:16.463Z,101319.94
2022-08-20T00:48:48.120Z,101308.28
2022-08-20T00:51:27.435Z,101311.22
2022-08-20T00:54:01.872Z,101306.81
2022-08-20T00:56:33.460Z,101304.91
2022-08-20T00:59:02.407Z,101308.69
2022-08-20T01:01:29.811Z,101304.44
2022-08-20T01:03:56.746Z,101306.16
2022-08-20T01:06:25.441Z,101296.88
2022-08-20T01:08:52.866Z,101288.63
2022-08-20T01:11:30.700Z,101285.22
2022-08-20T01:14:22.208Z,101288.84
2022-08-20T01:16:51.661Z,101287.97
2022-08-20T01:19:30.163Z,101294.31
2022-08-20T01:21:59.860Z,101291.59
2022-08-20T01:24:35.926Z,101281.03
2022-08-20T01:27:06.079Z,101277.88
2022-08-20T01:29:39.722Z,101273.53
2022-08-20T01:32:06.988Z,101274.81
2022-08-20T01:34:33.773Z,101283.31
2022-08-20T01:37:01.049Z,101278.06
2022-08-20T01:39:34.263Z,101292.91
2022-08-20T01:42:16.982Z,101287.00
2022-08-20T01:44:47.377Z,101286.41
2022-08-20T01:47:21.626Z,101273.34
2022-08-20T01:49:52.336Z,101268.47
2022-08-20T01:52:36.961Z,101267.44
2022-08-20T01:55:05.308Z,101271.69
2022-08-20T01:57:32.076Z,101258.78
2022-08-20T01:59:58.743Z,101264.94
2022-08-20T02:02:26.407Z,101265.78
2022-08-20T02:04:53.224Z,101271.94
2022-08-20T02:07:22.697Z,101270.88
2022-08-20T02:09:50.405Z,101268.13
2022-08-20T02:12:17.678Z,101275.31
2022-08-20T02:14:53.481Z,101269.63
2022-08-20T02:17:22.934Z,101271.13
2022-08-20T02:19:58.558Z,101270.06
2022-08-20T02:22:40.468Z,101262.66
2022-08-20T02:25:13.667Z,101255.09
2022-08-20T02:27:42.555Z,101260.38
2022-08-20T02:30:27.491Z,101258.69
2022-08-20T02:32:58.365Z,101253.19
2022-08-20T02:35:26.178Z,101244.09
2022-08-20T02:37:54.078Z,101253.38
2022-08-20T02:40:30.222Z,101250.63
2022-08-20T02:42:59.606Z,101254.22
2022-08-20T02:45:28.225Z,101249.81
2022-08-20T02:47:57.058Z,101257.84
2022-08-20T02:50:25.590Z,101252.53
2022-08-20T02:52:52.647Z,101241.50
2022-08-20T02:55:27.042Z,101235.13
2022-08-20T02:58:00.438Z,101234.63
2022-08-20T03:00:35.000Z,101229.47
2022-08-20T03:03:06.375Z,101233.25
2022-08-20T03:05:33.285Z,101229.59
2022-08-20T03:08:00.182Z,101231.06
2022-08-20T03:10:30.777Z,101224.69
2022-08-20T03:12:59.754Z,101217.13
2022-08-20T03:15:26.808Z,101227.22
2022-08-20T03:17:53.808Z,101209.09
2022-08-20T03:20:23.904Z,101212.22
2022-08-20T03:22:51.970Z,101206.72
2022-08-20T03:25:19.422Z,101203.13
2022-08-20T03:27:47.300Z,101194.06
2022-08-20T03:30:22.633Z,101188.56
2022-08-20T03:32:49.318Z,101203.97
2022-08-20T03:35:18.039Z,101201.22
2022-08-20T03:37:45.761Z,101208.22
2022-08-20T03:40:19.701Z,101206.56
2022-08-20T03:42:46.703Z,101196.88
2022-08-20T03:45:17.125Z,101202.84
2022-08-20T03:47:46.872Z,101200.94
2022-08-20T03:50:14.789Z,101198.59
2022-08-20T03:52:52.283Z,101206.16
2022-08-20T03:55:20.294Z,101214.59
2022-08-20T03:57:50.238Z,101195.59
2022-08-20T04:00:21.736Z,101194.75
2022-08-20T04:02:48.830Z,101190.97
2022-08-20T04:05:15.619Z,101192.84
2022-08-20T04:07:43.019Z,101182.06
2022-08-20T04:10:12.345Z,101183.09
2022-08-20T04:12:52.768Z,101175.28
2022-08-20T04:15:21.521Z,101176.53
2022-08-20T04:17:50.420Z,101174.19
2022-08-20T04:20:23.583Z,101177.13
2022-08-20T04:22:59.327Z,101184.53
2022-08-20T04:25:29.756Z,101184.88
2022-08-20T04:27:58.598Z,101190.13
2022-08-20T04:30:26.229Z,101183.13
2022-08-20T04:32:53.480Z,101184.38
2022-08-20T04:35:21.310Z,101184.59
2022-08-20T04:37:48.409Z,101188.16
2022-08-20T04:40:36.780Z,101189.25
2022-08-20T04:43:05.249Z,101195.75
2022-08-20T04:45:33.428Z,101206.06
2022-08-20T04:48:06.030Z,101200.78
2022-08-20T04:50:37.589Z,101197.19
2022-08-20T04:53:06.650Z,101203.09
2022-08-20T04:55:39.282Z,101203.94
2022-08-20T04:58:06.593Z,101207.91
2022-08-20T05:00:33.934Z,101206.22
2022-08-20T05:03:00.837Z,101203.88
2022-08-20T05:05:28.603Z,101204.06
2022-08-20T05:07:55.939Z,101205.97
2022-08-20T05:10:23.728Z,101208.72
2022-08-20T05:12:56.931Z,101206.19
2022-08-20T05:15:26.248Z,101206.38
2022-08-20T05:18:06.014Z,101207.41
2022-08-20T05:20:40.403Z,101212.22
2022-08-20T05:23:12.491Z,101209.47
2022-08-20T05:25:40.101Z,101213.28
2022-08-20T05:28:18.510Z,101210.56
2022-08-20T05:30:47.569Z,101210.34
2022-08-20T05:33:18.034Z,101220.94
2022-08-20T05:35:44.974Z,101210.78
2022-08-20T05:38:13.814Z,101217.16
2022-08-20T05:40:42.550Z,101230.66
2022-08-20T05:43:09.636Z,101215.91
2022-08-20T05:45:39.017Z,101225.81
2022-08-20T05:48:12.074Z,101223.94
2022-08-20T05:50:41.155Z,101229.88
2022-08-20T05:53:07.896Z,101233.72
2022-08-20T05:55:37.619Z,101228.69
2022-08-20T05:58:07.724Z,101228.69
2022-08-20T06:00:35.655Z,101222.81
2022-08-20T06:03:41.191Z,101228.28
2022-08-20T06:06:17.890Z,101227.25
2022-08-20T06:08:55.560Z,101238.03
2022-08-20T06:11:23.144Z,101232.13
2022-08-20T06:13:49.821Z,101236.69
2022-08-20T06:16:16.803Z,101234.84
2022-08-20T06:18:43.912Z,101233.00
2022-08-20T06:21:10.571Z,101241.28
2022-08-20T06:23:50.359Z,101233.28
2022-08-20T06:26:30.707Z,101234.41
2022-08-20T06:29:00.553Z,101243.91
2022-08-20T06:31:27.633Z,101240.56
2022-08-20T06:33:54.756Z,101230.00
2022-08-20T06:36:21.783Z,101237.00
2022-08-20T06:38:48.784Z,101238.50
2022-08-20T06:41:16.611Z,101233.69
2022-08-20T06:43:43.495Z,101237.06
2022-08-20T06:46:10.723Z,101222.47
2022-08-20T06:48:37.433Z,101224.38
2022-08-20T06:51:06.887Z,101227.53
2022-08-20T06:53:33.715Z,101215.91
2022-08-20T06:56:00.579Z,101225.59
2022-08-20T06:58:35.729Z,101217.09
2022-08-20T07:01:10.090Z,101223.22
2022-08-20T07:03:38.571Z,101222.94
2022-08-20T07:06:05.917Z,101225.25
2022-08-20T07:08:33.429Z,101224.88
2022-08-20T07:11:00.756Z,101218.28
2022-08-20T07:13:28.588Z,101232.03
2022-08-20T07:15:56.062Z,101229.06
2022-08-20T07:18:28.209Z,101231.44
2022-08-20T07:20:57.356Z,101223.63
2022-08-20T07:23:26.888Z,101227.69
2022-08-20T07:25:55.877Z,101226.63
2022-08-20T07:28:29.028Z,101219.03
2022-08-20T07:31:16.065Z,101220.31
2022-08-20T07:33:44.797Z,101223.97
2022-08-20T07:36:12.950Z,101226.94
2022-08-20T07:38:39.915Z,101224.88
2022-08-20T07:41:13.367Z,101223.63
2022-08-20T07:43:41.267Z,101222.13
2022-08-20T07:46:09.343Z,101224.63
2022-08-20T07:48:42.065Z,101223.72
2022-08-20T07:51:11.000Z,101228.97
2022-08-20T07:53:39.140Z,101224.94
2022-08-20T07:56:11.323Z,101231.25
2022-08-20T07:58:42.797Z,101219.59
2022-08-20T08:01:11.673Z,101225.09
2022-08-20T08:03:40.872Z,101231.66
2022-08-20T08:06:28.305Z,101236.28
2022-08-20T08:08:56.968Z,101223.00
2022-08-20T08:11:23.967Z,101227.28
2022-08-20T08:13:51.837Z,101228.19
2022-08-20T08:16:20.199Z,101221.72
2022-08-20T08:18:52.371Z,101230.47
2022-08-20T08:21:21.092Z,101230.94
2022-08-20T08:23:47.882Z,101222.59
2022-08-20T08:26:18.834Z,101220.72
2022-08-20T08:28:46.236Z,101223.69
2022-08-20T08:31:14.080Z,101219.94
2022-08-20T08:33:41.995Z,101225.88
2022-08-20T08:36:12.486Z,101223.56
2022-08-20T08:38:43.312Z,101223.56
2022-08-20T08:41:20.774Z,101228.22
2022-08-20T08:43:51.213Z,101233.13
2022-08-20T08:46:23.741Z,101233.97
2022-08-20T08:48:53.850Z,101241.59
2022-08-20T08:51:42.602Z,101239.03
2022-08-20T08:54:16.774Z,101242.00
2022-08-20T08:56:43.605Z,101239.22
2022-08-20T08:59:17.095Z,101230.69
2022-08-20T09:01:54.948Z,101231.25
2022-08-20T09:04:30.552Z,101236.94
2022-08-20T09:06:58.797Z,101218.03
2022-08-20T09:09:30.076Z,101223.09
2022-08-20T09:12:07.504Z,101223.84
2022-08-20T09:14:35.088Z,101221.84
2022-08-20T09:17:01.934Z,101216.16
2022-08-20T09:19:29.094Z,101210.47
2022-08-20T09:21:56.128Z,101211.25
2022-08-20T09:24:22.810Z,101211.97
2022-08-20T09:26:49.669Z,101218.03
2022-08-20T09:29:16.796Z,101222.25
2022-08-20T09:31:43.952Z,101218.59
2022-08-20T09:34:11.903Z,101210.81
2022-08-20T09:36:38.728Z,101211.13
2022-08-20T09:39:05.548Z,101213.13
2022-08-20T09:41:33.742Z,101220.72
2022-08-20T09:44:02.102Z,101213.19
2022-08-20T09:46:28.881Z,101205.06
2022-08-20T09:48:55.830Z,101210.19
2022-08-20T09:51:22.991Z,101202.50
2022-08-20T09:53:50.463Z,101188.16
2022-08-20T09:56:17.620Z,101211.97
2022-08-20T09:58:53.489Z,101212.81
2022-08-20T10:01:22.576Z,101198.06
2022-08-20T10:03:50.404Z,101200.53
2022-08-20T10:06:20.504Z,101192.97
2022-08-20T10:08:49.148Z,101193.38
2022-08-20T10:11:18.035Z,101194.16
2022-08-20T10:13:45.422Z,101192.91
2022-08-20T10:16:13.124Z,101213.41
2022-08-20T10:18:39.818Z,101197.97
2022-08-20T10:21:12.903Z,101188.44
2022-08-20T10:23:39.817Z,101192.06
2022-08-20T10:26:11.454Z,101192.97
2022-08-20T10:28:38.497Z,101209.25
2022-08-20T10:31:12.471Z,101196.38
2022-08-20T10:33:40.508Z,101198.50
2022-08-20T10:36:09.149Z,101196.28
2022-08-20T10:38:36.143Z,101194.38
2022-08-20T10:41:03.591Z,101188.66
2022-08-20T10:43:30.549Z,101190.47
2022-08-20T10:45:57.535Z,101198.47
2022-08-20T10:48:24.430Z,101192.31
2022-08-20T10:50:51.631Z,101184.25
2022-08-20T10:53:18.657Z,101177.72
2022-08-20T10:55:45.609Z,101189.28
2022-08-20T10:58:13.274Z,101178.06
2022-08-20T11:00:40.920Z,101170.16
2022-08-20T11:03:07.882Z,101168.69
2022-08-20T11:05:34.576Z,101185.44
2022-08-20T11:08:04.223Z,101177.09
2022-08-20T11:10:34.124Z,101182.47
2022-08-20T11:13:05.939Z,101181.97
2022-08-20T11:15:37.653Z,101167.16
2022-08-20T11:18:05.233Z,101169.91
2022-08-20T11:20:32.576Z,101177.75
2022-08-20T11:22:59.562Z,101176.03
2022-08-20T11:25:27.355Z,101174.47
2022-08-20T11:27:57.128Z,101170.53
2022-08-20T11:30:30.606Z,101170.50
2022-08-20T11:32:58.424Z,101174.13
2022-08-20T11:35:48.959Z,101158.06
2022-08-20T11:38:14.017Z,101148.38
2022-08-20T11:40:40.936Z,101156.44
2022-08-20T11:43:16.715Z,101156.66
2022-08-20T11:45:47.186Z,101143.31
2022-08-20T11:48:13.942Z,101154.78
2022-08-20T11:50:41.148Z,101140.06
2022-08-20T11:53:08.274Z,101147.31
2022-08-20T11:55:35.187Z,101152.69
2022-08-20T11:58:02.205Z,101139.59
2022-08-20T12:00:32.107Z,101135.38
2022-08-20T12:03:05.504Z,101135.88
2022-08-20T12:05:35.075Z,101145.22
2022-08-20T12:08:02.212Z,101136.75
2022-08-20T12:10:29.947Z,101134.34
2022-08-20T12:12:57.864Z,101131.50
2022-08-20T12:15:26.845Z,101141.81
2022-08-20T12:17:54.136Z,101126.16
2022-08-20T12:20:22.592Z,101127.34
2022-08-20T12:22:49.354Z,101133.25
2022-08-20T12:25:16.600Z,101112.75
2022-08-20T12:27:43.593Z,101113.38
2022-08-20T12:30:17.299Z,101120.13
2022-08-20T12:32:45.008Z,101111.75
2022-08-20T12:35:14.559Z,101116.47
2022-08-20T12:37:42.430Z,101108.47
2022-08-20T12:40:14.081Z,101107.84
2022-08-20T12:42:41.238Z,101103.78
2022-08-20T12:45:08.903Z,101089.31
2022-08-20T12:47:38.866Z,101109.19
2022-08-20T12:50:09.527Z,101110.25
2022-08-20T12:52:36.800Z,101103.50
2022-08-20T12:55:05.593Z,101093.16
2022-08-20T12:57:35.148Z,101103.69
2022-08-20T13:00:07.244Z,101097.50
2022-08-20T13:02:34.252Z,101105.44
2022-08-20T13:05:05.074Z,101105.31
2022-08-20T13:07:33.053Z,101099.19
2022-08-20T13:10:00.531Z,101104.91
2022-08-20T13:12:28.085Z,101114.25
2022-08-20T13:14:55.040Z,101108.28
2022-08-20T13:17:24.326Z,101104.78
2022-08-20T13:20:08.258Z,101090.75
2022-08-20T13:22:35.045Z,101110.78
2022-08-20T13:25:01.766Z,101106.34
2022-08-20T13:27:28.766Z,101112.47
2022-08-20T13:29:58.815Z,101105.69
2022-08-20T13:32:26.354Z,101090.13
2022-08-20T13:34:53.655Z,101103.53
2022-08-20T13:37:26.535Z,101090.41
2022-08-20T13:39:54.406Z,101097.78
2022-08-20T13:42:21.818Z,101098.69
2022-08-20T13:44:48.900Z,101093.53
2022-08-20T13:47:31.188Z,101100.91
2022-08-20T13:50:03.747Z,101091.28
2022-08-20T13:52:31.561Z,101093.53
2022-08-20T13:54:58.646Z,101098.78
2022-08-20T13:57:27.017Z,101114.31
2022-08-20T13:59:56.735Z,101100.78
2022-08-20T14:02:24.399Z,101100.13
2022-08-20T14:04:52.039Z,101096.88
2022-08-20T14:07:21.139Z,101100.34
2022-08-20T14:09:54.052Z,101080.22
2022-08-20T14:12:23.340Z,101082.31
2022-08-20T14:14:51.658Z,101080.28
2022-08-20T14:17:25.287Z,101065.34
2022-08-20T14:19:58.879Z,101069.97
2022-08-20T14:22:28.723Z,101069.56
2022-08-20T14:24:56.422Z,101055.09
2022-08-20T14:27:27.784Z,101068.06
2022-08-20T14:29:58.149Z,101060.72
2022-08-20T14:32:24.979Z,101066.94
2022-08-20T14:34:51.657Z,101054.38
2022-08-20T14:37:20.508Z,101066.41
2022-08-20T14:39:50.565Z,101065.97
2022-08-20T14:42:17.704Z,101063.78
2022-08-20T14:44:45.205Z,101055.22
2022-08-20T14:47:21.330Z,101075.59
2022-08-20T14:49:50.865Z,101069.25
2022-08-20T14:52:19.708Z,101071.84
2022-08-20T14:54:48.245Z,101076.84
2022-08-20T14:57:16.495Z,101061.69
2022-08-20T14:59:43.725Z,101084.34
2022-08-20T15:02:14.332Z,101064.84
2022-08-20T15:04:41.775Z,101076.03
2022-08-20T15:07:22.575Z,101079.50
2022-08-20T15:09:49.730Z,101088.75
2022-08-20T15:12:16.452Z,101081.88
2022-08-20T15:14:43.110Z,101088.75
2022-08-20T15:17:22.776Z,101090.91
2022-08-20T15:19:50.091Z,101090.50
2022-08-20T15:22:17.704Z,101079.94
2022-08-20T15:24:44.744Z,101103.47
2022-08-20T15:27:23.801Z,101093.28
2022-08-20T15:29:51.866Z,101095.13
2022-08-20T15:32:19.880Z,101085.78
2022-08-20T15:34:47.183Z,101090.56
2022-08-20T15:37:22.997Z,101096.22
2022-08-20T15:39:51.618Z,101079.88
2022-08-20T15:42:19.854Z,101082.31
2022-08-20T15:44:47.758Z,101086.47
2022-08-20T15:47:44.950Z,101091.59
2022-08-20T15:50:33.402Z,101105.47
2022-08-20T15:53:15.904Z,101093.09
2022-08-20T15:55:53.805Z,101104.09
2022-08-20T15:58:45.086Z,101098.22
2022-08-20T16:01:25.805Z,101093.78
2022-08-20T16:04:15.497Z,101105.28
2022-08-20T16:06:43.693Z,101103.56
2022-08-20T16:09:30.544Z,101101.38
2022-08-20T16:12:11.292Z,101113.16
2022-08-20T16:14:45.287Z,101101.41
2022-08-20T16:17:46.932Z,101092.00
2022-08-20T16:20:25.844Z,101093.59
2022-08-20T16:23:02.614Z,101087.78
2022-08-20T16:25:34.414Z,101092.56
2022-08-20T16:28:16.537Z,101079.25
2022-08-20T16:30:50.121Z,101097.28
2022-08-20T16:33:26.400Z,101096.25
2022-08-20T16:36:03.576Z,101090.50
2022-08-20T16:38:49.969Z,101108.28
2022-08-20T16:41:26.998Z,101105.59
2022-08-20T16:44:00.277Z,101122.50
2022-08-20T16:46:46.222Z,101123.72
2022-08-20T16:49:14.347Z,101118.53
2022-08-20T16:51:51.878Z,101114.69
2022-08-20T16:54:30.793Z,101117.50
2022-08-20T16:57:04.023Z,101118.13
2022-08-20T16:59:31.507Z,101123.19
2022-08-20T17:02:04.477Z,101127.56
2022-08-20T17:04:34.941Z,101137.38
2022-08-20T17:07:03.356Z,101153.09
2022-08-20T17:09:37.753Z,101156.78
2022-08-20T17:12:25.492Z,101153.78
2022-08-20T17:14:56.028Z,101173.63
2022-08-20T17:17:26.901Z,101165.06
2022-08-20T17:19:56.531Z,101158.44
2022-08-20T17:22:25.480Z,101167.38
2022-08-20T17:24:52.325Z,101171.09
2022-08-20T17:27:48.576Z,101176.66
2022-08-20T17:30:25.570Z,101172.41
2022-08-20T17:32:58.429Z,101191.75
2022-08-20T17:35:37.599Z,101191.97
2022-08-20T17:38:05.341Z,101204.53
2022-08-20T17:40:38.499Z,101200.53
2022-08-20T17:43:09.488Z,101206.66
2022-08-20T17:45:44.759Z,101214.19
2022-08-20T17:48:29.798Z,101207.22
2022-08-20T17:50:58.240Z,101216.63
2022-08-20T17:53:32.282Z,101211.97
2022-08-20T17:56:04.477Z,101210.63
2022-08-20T17:58:54.258Z,101211.88
2022-08-20T18:01:22.360Z,101203.50
2022-08-20T18:03:50.973Z,101201.91
2022-08-20T18:06:38.434Z,101211.69
2022-08-20T18:09:16.774Z,101199.72
2022-08-20T18:11:49.569Z,101203.31
2022-08-20T18:14:33.469Z,101208.84
2022-08-20T18:17:18.522Z,101206.81
2022-08-20T18:19:57.187Z,101199.69
2022-08-20T18:22:29.096Z,101200.84
2022-08-20T18:25:01.940Z,101209.91
2022-08-20T18:27:38.118Z,101209.97
2022-08-20T18:30:22.529Z,101211.94
2022-08-20T18:32:59.720Z,101202.03
2022-08-20T18:35:37.564Z,101229.25
2022-08-20T18:38:29.516Z,101217.78
2022-08-20T18:41:14.703Z,101211.47
2022-08-20T18:43:42.961Z,101215.28
2022-08-20T18:46:21.125Z,101227.56
2022-08-20T18:48:53.988Z,101221.66
2022-08-20T18:51:29.153Z,101234.38
2022-08-20T18:53:56.261Z,101233.50
2022-08-20T18:56:37.353Z,101228.44
2022-08-20T18:59:18.087Z,101232.06
2022-08-20T19:01:48.412Z,101231.19
2022-08-20T19:04:30.291Z,101234.16
2022-08-20T19:07:05.119Z,101240.31
2022-08-20T19:09:56.527Z,101243.31
2022-08-20T19:12:58.688Z,101236.47
2022-08-20T19:15:26.681Z,101234.38
2022-08-20T19:18:05.715Z,101233.09
2022-08-20T19:20:34.938Z,101233.94
2022-08-20T19:23:18.681Z,101239.03
2022-08-20T19:25:57.884Z,101235.22
2022-08-20T19:28:42.511Z,101226.09
2022-08-20T19:31:16.481Z,101237.72
2022-08-20T19:33:46.541Z,101244.94
2022-08-20T19:36:22.163Z,101239.41
2022-08-20T19:38:53.348Z,101241.97
2022-08-20T19:41:43.645Z,101247.66
2022-08-20T19:44:11.691Z,101248.72
2022-08-20T19:46:44.983Z,101241.50
2022-08-20T19:49:20.811Z,101238.34
2022-08-20T19:52:08.972Z,101246.56
2022-08-20T19:54:54.101Z,101241.28
2022-08-20T19:57:23.925Z,101249.34
2022-08-20T20:00:05.751Z,101258.88
2022-08-20T20:02:34.667Z,101252.97
2022-08-20T20:05:09.645Z,101249.16
2022-08-20T20:07:36.473Z,101255.50
2022-08-20T20:10:07.424Z,101247.91
2022-08-20T20:12:36.934Z,101256.16
2022-08-20T20:15:06.529Z,101257.63
2022-08-20T20:17:36.204Z,101257.63
2022-08-20T20:20:17.194Z,101264.41
2022-08-20T20:23:06.674Z,101269.06
2022-08-20T20:25:34.183Z,101271.81
2022-08-20T20:28:18.625Z,101269.25
2022-08-20T20:30:45.763Z,101273.47
2022-08-20T20:33:17.257Z,101278.72
2022-08-20T20:35:45.485Z,101277.84
2022-08-20T20:38:27.205Z,101271.94
2022-08-20T20:41:00.493Z,101279.94
2022-08-20T20:43:32.405Z,101279.06
2022-08-20T20:46:20.077Z,101281.38
2022-08-20T20:48:52.257Z,101284.34
2022-08-20T20:51:27.502Z,101289.22
2022-08-20T20:53:58.784Z,101287.13
2022-08-20T20:56:29.382Z,101285.66
2022-08-20T20:58:56.373Z,101282.69
2022-08-20T21:01:27.359Z,101287.56
2022-08-20T21:04:10.704Z,101288.16
2022-08-20T21:06:38.284Z,101290.91
2022-08-20T21:09:05.261Z,101290.50
2022-08-20T21:11:32.145Z,101295.59
2022-08-20T21:14:00.893Z,101292.22
2022-08-20T21:16:27.711Z,101302.78
2022-08-20T21:18:54.512Z,101301.53
2022-08-20T21:21:21.424Z,101295.41
2022-08-20T21:23:48.122Z,101294.75
2022-08-20T21:26:15.022Z,101299.63
2022-08-20T21:28:41.740Z,101301.31
2022-08-20T21:31:08.480Z,101305.53
2022-08-20T21:33:35.457Z,101309.91
2022-08-20T21:36:02.225Z,101304.19
2022-08-20T21:38:28.958Z,101304.38
2022-08-20T21:40:55.895Z,101310.50
2022-08-20T21:43:25.205Z,101312.25
2022-08-20T21:45:52.097Z,101317.53
2022-08-20T21:48:19.177Z,101317.53
2022-08-20T21:50:45.944Z,101327.69
2022-08-20T21:53:13.292Z,101323.88
2022-08-20T21:55:40.878Z,101317.47
2022-08-20T21:58:08.888Z,101317.06
2022-08-20T22:00:48.872Z,101318.50
2022-08-20T22:03:16.656Z,101325.09
2022-08-20T22:05:48.061Z,101315.75
2022-08-20T22:08:14.989Z,101322.53
2022-08-20T22:10:41.730Z,101323.78
2022-08-20T22:13:08.745Z,101328.19
2022-08-20T22:15:35.610Z,101337.69
2022-08-20T22:18:02.642Z,101332.59
2022-08-20T22:20:29.631Z,101330.03
2022-08-20T22:22:57.599Z,101341.22
2022-08-20T22:25:24.464Z,101335.25
2022-08-20T22:27:51.291Z,101337.53
2022-08-20T22:30:18.132Z,101336.63
2022-08-20T22:32:50.426Z,101347.16
2022-08-20T22:35:19.077Z,101343.38
2022-08-20T22:37:46.047Z,101344.88
2022-08-20T22:40:13.025Z,101353.47
2022-08-20T22:42:39.796Z,101348.41
2022-08-20T22:45:11.720Z,101343.31
2022-08-20T22:47:42.801Z,101350.44
2022-08-20T22:50:12.186Z,101346.13
2022-08-20T22:52:40.261Z,101342.00
2022-08-20T22:55:07.757Z,101345.56
2022-08-20T22:57:37.244Z,101344.44
2022-08-20T23:00:11.618Z,101346.72
2022-08-20T23:02:40.263Z,101346.66
2022-08-20T23:05:08.168Z,101341.72
2022-08-20T23:07:35.247Z,101337.22
2022-08-20T23:10:02.140Z,101343.47
2022-08-20T23:12:28.883Z,101350.59
2022-08-20T23:14:55.768Z,101346.41
2022-08-20T23:17:22.770Z,101351.16
2022-08-20T23:19:50.525Z,101347.63
2022-08-20T23:22:18.870Z,101343.16
2022-08-20T23:24:46.354Z,101338.00
2022-08-20T23:27:16.764Z,101344.66
2022-08-20T23:29:43.623Z,101343.25
2022-08-20T23:32:11.097Z,101355.00
2022-08-20T23:34:38.050Z,101362.28
2022-08-20T23:37:06.906Z,101357.78
2022-08-20T23:39:34.648Z,101362.78
2022-08-20T23:42:01.638Z,101356.84
2022-08-20T23:44:28.650Z,101362.88
2022-08-20T23:47:02.231Z,101359.19
2022-08-20T23:49:30.611Z,101360.63
2022-08-20T23:52:00.506Z,101373.00
2022-08-20T23:54:29.159Z,101375.75
2022-08-20T23:56:57.186Z,101364.97
2022-08-20T23:59:24.607Z,101376.44
